createdAt,value
2019-03-30T00:02:36.990Z,58.67
2019-03-30T00:05:59.010Z,46.73
2019-03-30T00:09:15.420Z,53.70
2019-03-30T00:12:55.584Z,69.00
2019-03-30T00:16:00.617Z,69.17
2019-03-30T00:23:19.937Z,57.27
2019-03-30T00:26:37.399Z,57.40
2019-03-30T00:30:04.572Z,72.60
2019-03-30T00:40:07.600Z,62.73
2019-03-30T00:43:13.426Z,63.53
2019-03-30T00:50:38.922Z,64.07
2019-03-30T00:57:37.919Z,62.87
2019-03-30T01:00:33.471Z,62.60
2019-03-30T01:03:16.787Z,69.40
2019-03-30T01:06:13.547Z,63.13
2019-03-30T01:09:06.582Z,64.13
2019-03-30T01:12:02.925Z,71.83
2019-03-30T01:14:56.032Z,69.83
2019-03-30T01:21:10.899Z,65.20
2019-03-30T01:24:02.847Z,67.83
2019-03-30T01:26:40.046Z,98.27
2019-03-30T01:29:37.273Z,74.50
2019-03-30T01:35:55.674Z,53.50
2019-03-30T01:38:34.903Z,59.40
2019-03-30T01:41:11.032Z,65.50
2019-03-30T01:54:40.569Z,62.23
2019-03-30T01:57:33.861Z,63.83
2019-03-30T02:00:12.422Z,64.30
2019-03-30T02:02:57.670Z,65.53
2019-03-30T02:05:40.426Z,68.50
2019-03-30T02:08:14.015Z,71.67
2019-03-30T02:10:48.625Z,53.27
2019-03-30T02:13:19.228Z,69.63
2019-03-30T02:16:00.680Z,66.97
2019-03-30T02:18:31.827Z,55.17
2019-03-30T02:21:02.370Z,52.97
2019-03-30T02:23:35.525Z,54.57
2019-03-30T02:26:15.645Z,68.77
2019-03-30T02:28:47.946Z,56.90
2019-03-30T02:31:22.503Z,76.30
2019-03-30T02:33:58.364Z,72.17
2019-03-30T02:36:37.050Z,53.70
2019-03-30T02:39:38.959Z,59.47
2019-03-30T02:42:12.871Z,54.60
2019-03-30T02:44:44.715Z,58.87
2019-03-30T02:47:19.990Z,56.97
2019-03-30T02:49:53.043Z,49.17
2019-03-30T02:52:25.206Z,76.27
2019-03-30T02:54:57.891Z,58.50
2019-03-30T02:57:31.660Z,60.90
2019-03-30T03:00:02.457Z,41.90
2019-03-30T03:02:33.802Z,37.10
2019-03-30T03:05:03.828Z,52.67
2019-03-30T03:07:33.922Z,54.67
2019-03-30T03:10:08.115Z,29.70
2019-03-30T03:12:39.445Z,43.73
2019-03-30T03:15:11.533Z,40.67
2019-03-30T03:17:45.967Z,37.50
2019-03-30T03:20:16.196Z,38.50
2019-03-30T03:22:46.502Z,41.83
2019-03-30T03:25:16.530Z,42.47
2019-03-30T03:27:46.946Z,53.30
2019-03-30T03:30:17.567Z,43.00
2019-03-30T03:32:49.649Z,42.57
2019-03-30T03:35:22.238Z,51.77
2019-03-30T03:37:52.497Z,75.47
2019-03-30T03:40:22.308Z,66.50
2019-03-30T03:42:52.651Z,66.73
2019-03-30T03:45:24.290Z,64.00
2019-03-30T03:47:55.138Z,39.97
2019-03-30T03:50:47.767Z,46.77
2019-03-30T03:53:18.170Z,58.50
2019-03-30T03:55:48.501Z,51.87
2019-03-30T03:58:19.260Z,49.13
2019-03-30T04:00:52.111Z,50.53
2019-03-30T04:03:23.969Z,58.70
2019-03-30T04:05:59.682Z,37.43
2019-03-30T04:08:30.389Z,68.50
2019-03-30T04:11:00.648Z,61.50
2019-03-30T04:13:32.744Z,59.53
2019-03-30T04:16:06.528Z,63.50
2019-03-30T04:18:38.057Z,60.77
2019-03-30T04:21:10.781Z,60.67
2019-03-30T04:23:40.565Z,45.83
2019-03-30T04:26:11.458Z,60.63
2019-03-30T04:28:44.024Z,63.13
2019-03-30T04:31:13.767Z,59.70
2019-03-30T04:33:45.331Z,48.40
2019-03-30T04:36:22.618Z,49.40
2019-03-30T04:38:52.582Z,51.17
2019-03-30T04:41:24.302Z,70.10
2019-03-30T04:43:54.348Z,55.53
2019-03-30T04:46:24.818Z,59.87
2019-03-30T04:48:55.384Z,58.27
2019-03-30T04:51:29.640Z,48.40
2019-03-30T04:53:59.873Z,46.23
2019-03-30T04:56:30.739Z,74.33
2019-03-30T04:59:00.697Z,59.00
2019-03-30T05:01:30.535Z,48.93
2019-03-30T05:04:00.474Z,48.33
2019-03-30T05:06:31.003Z,42.97
2019-03-30T05:09:00.996Z,54.77
2019-03-30T05:11:30.819Z,55.80
2019-03-30T05:14:00.842Z,64.13
2019-03-30T05:16:30.944Z,66.33
2019-03-30T05:19:00.819Z,55.90
2019-03-30T05:21:31.285Z,46.03
2019-03-30T05:24:02.009Z,52.40
2019-03-30T05:26:33.303Z,42.23
2019-03-30T05:29:03.110Z,56.40
2019-03-30T05:31:33.044Z,47.93
2019-03-30T05:34:03.383Z,43.67
2019-03-30T05:36:33.839Z,45.23
2019-03-30T05:39:05.234Z,52.93
2019-03-30T05:41:35.587Z,50.40
2019-03-30T05:44:05.584Z,67.97
2019-03-30T05:46:36.141Z,62.07
2019-03-30T05:49:07.676Z,42.40
2019-03-30T05:51:37.686Z,76.90
2019-03-30T05:54:07.625Z,54.97
2019-03-30T05:56:37.604Z,53.17
2019-03-30T05:59:07.603Z,53.97
2019-03-30T06:01:38.608Z,55.73
2019-03-30T06:04:09.024Z,53.50
2019-03-30T06:06:45.168Z,54.00
2019-03-30T06:09:15.448Z,56.80
2019-03-30T06:11:45.491Z,50.13
2019-03-30T06:14:17.600Z,57.73
2019-03-30T06:16:47.978Z,52.10
2019-03-30T06:19:18.186Z,57.07
2019-03-30T06:22:05.112Z,55.00
2019-03-30T06:25:01.029Z,57.33
2019-03-30T06:27:35.578Z,48.87
2019-03-30T06:31:18.586Z,57.33
2019-03-30T06:33:51.316Z,65.50
2019-03-30T06:36:41.805Z,62.27
2019-03-30T06:39:25.434Z,55.37
2019-03-30T06:42:00.414Z,69.10
2019-03-30T06:44:32.894Z,49.30
2019-03-30T06:51:42.171Z,64.77
2019-03-30T08:10:04.757Z,29.13
2019-03-30T08:13:02.025Z,29.13
2019-03-30T08:16:17.359Z,37.00
2019-03-30T08:19:42.994Z,68.53
2019-03-30T08:22:58.227Z,33.20
2019-03-30T08:25:35.865Z,35.23
2019-03-30T08:28:22.440Z,24.20
2019-03-30T08:39:03.329Z,17.67
2019-03-30T08:42:29.191Z,30.30
2019-03-30T09:05:48.219Z,39.03
2019-03-30T09:08:24.439Z,23.23
2019-03-30T09:11:16.632Z,33.70
2019-03-30T09:14:21.609Z,21.63
2019-03-30T09:17:14.569Z,30.70
2019-03-30T09:20:09.942Z,30.37
2019-03-30T09:22:44.431Z,22.57
2019-03-30T09:25:16.416Z,19.53
2019-03-30T09:27:47.371Z,27.73
2019-03-30T09:30:19.245Z,25.67
2019-03-30T09:32:50.836Z,29.77
2019-03-30T09:35:30.732Z,24.70
2019-03-30T09:38:03.820Z,31.80
2019-03-30T09:40:41.794Z,26.13
2019-03-30T09:43:12.084Z,25.57
2019-03-30T09:45:49.482Z,27.17
2019-03-30T09:48:21.676Z,24.20
2019-03-30T09:50:53.066Z,26.20
2019-03-30T09:53:25.314Z,22.30
2019-03-30T09:55:56.719Z,33.50
2019-03-30T09:58:47.101Z,22.50
2019-03-30T10:01:21.258Z,30.20
2019-03-30T10:03:52.982Z,27.53
2019-03-30T10:06:33.913Z,22.20
2019-03-30T10:08:57.836Z,28.30
2019-03-30T10:11:48.448Z,30.83
2019-03-30T10:14:24.008Z,25.17
2019-03-30T10:17:01.012Z,26.57
2019-03-30T10:19:31.882Z,22.60
2019-03-30T10:22:01.791Z,27.03
2019-03-30T10:24:37.888Z,24.33
2019-03-30T10:27:03.983Z,37.97
2019-03-30T10:29:34.005Z,26.90
2019-03-30T10:32:04.010Z,41.77
2019-03-30T10:34:34.088Z,26.33
2019-03-30T10:37:04.282Z,25.40
2019-03-30T10:39:37.705Z,29.00
2019-03-30T10:42:10.077Z,25.03
2019-03-30T10:44:46.650Z,26.23
2019-03-30T10:47:21.010Z,26.97
2019-03-30T10:49:51.749Z,22.77
2019-03-30T10:52:21.988Z,29.23
2019-03-30T10:54:53.369Z,31.70
2019-03-30T10:57:32.445Z,23.43
2019-03-30T11:00:15.578Z,18.70
2019-03-30T11:03:17.124Z,23.37
2019-03-30T11:06:18.439Z,21.60
2019-03-30T11:08:49.163Z,21.20
2019-03-30T11:11:23.242Z,20.57
2019-03-30T11:13:57.006Z,17.77
2019-03-30T11:16:28.308Z,33.37
2019-03-30T11:18:58.811Z,47.10
2019-03-30T11:21:33.781Z,19.23
2019-03-30T11:24:09.487Z,28.47
2019-03-30T11:26:49.963Z,23.10
2019-03-30T11:29:24.771Z,24.33
2019-03-30T11:32:15.599Z,14.30
2019-03-30T11:34:53.649Z,12.80
2019-03-30T11:37:24.643Z,20.93
2019-03-30T11:39:55.399Z,12.33
2019-03-30T11:42:38.443Z,16.53
2019-03-30T11:45:11.422Z,25.30
2019-03-30T11:47:55.982Z,14.97
2019-03-30T11:50:29.046Z,17.83
2019-03-30T11:52:59.999Z,21.10
2019-03-30T11:55:30.134Z,19.30
2019-03-30T11:58:00.363Z,22.53
2019-03-30T12:00:30.384Z,32.80
2019-03-30T12:03:00.978Z,26.07
2019-03-30T12:05:32.017Z,15.23
2019-03-30T12:08:03.429Z,13.70
2019-03-30T12:10:33.491Z,14.87
2019-03-30T12:13:03.654Z,31.17
2019-03-30T12:15:33.854Z,26.67
2019-03-30T12:18:03.847Z,13.03
2019-03-30T12:20:33.948Z,15.33
2019-03-30T12:23:03.847Z,11.70
2019-03-30T12:25:36.111Z,7.87
2019-03-30T12:28:09.641Z,13.33
2019-03-30T12:30:41.291Z,8.60
2019-03-30T12:33:12.523Z,9.10
2019-03-30T12:35:43.681Z,13.93
2019-03-30T12:38:14.826Z,19.93
2019-03-30T12:40:44.862Z,17.23
2019-03-30T12:43:24.682Z,12.03
2019-03-30T12:46:00.415Z,11.97
2019-03-30T12:48:37.604Z,15.67
2019-03-30T12:51:10.058Z,8.83
2019-03-30T12:53:50.355Z,9.43
2019-03-30T12:56:22.307Z,21.83
2019-03-30T12:58:58.090Z,14.47
2019-03-30T13:02:02.080Z,11.00
2019-03-30T13:04:39.655Z,12.13
2019-03-30T13:07:24.254Z,7.60
2019-03-30T13:09:54.125Z,10.63
2019-03-30T13:15:26.793Z,19.10
2019-03-30T13:18:02.574Z,8.87
2019-03-30T13:21:00.743Z,14.57
2019-03-30T13:23:30.920Z,12.00
2019-03-30T13:26:27.742Z,12.73
2019-03-30T13:29:30.673Z,19.37
2019-03-30T13:32:18.680Z,13.77
2019-03-30T13:34:49.846Z,9.83
2019-03-30T13:37:20.599Z,21.97
2019-03-30T13:46:54.324Z,12.17
2019-03-30T13:49:30.162Z,13.73
2019-03-30T13:52:26.877Z,21.33
2019-03-30T13:54:56.875Z,13.53
2019-03-30T13:57:27.540Z,15.53
2019-03-30T13:59:57.487Z,26.20
2019-03-30T14:02:28.348Z,26.93
2019-03-30T14:04:58.303Z,20.93
2019-03-30T14:07:28.214Z,12.43
2019-03-30T14:09:58.217Z,12.93
2019-03-30T14:12:28.217Z,13.33
2019-03-30T14:14:58.154Z,16.10
2019-03-30T14:17:28.040Z,13.03
2019-03-30T14:19:58.062Z,12.57
2019-03-30T14:22:28.050Z,14.20
2019-03-30T14:24:58.106Z,16.50
2019-03-30T14:27:28.115Z,14.23
2019-03-30T14:29:57.979Z,21.17
2019-03-30T14:32:28.098Z,19.13
2019-03-30T14:34:57.964Z,21.87
2019-03-30T14:37:27.979Z,15.67
2019-03-30T14:39:58.018Z,19.20
2019-03-30T14:42:27.926Z,11.93
2019-03-30T14:44:57.946Z,22.83
2019-03-30T14:47:27.982Z,14.23
2019-03-30T14:49:58.267Z,14.53
2019-03-30T14:52:28.260Z,19.30
2019-03-30T14:54:58.321Z,29.07
2019-03-30T14:57:28.589Z,14.27
2019-03-30T14:59:58.605Z,14.13
2019-03-30T15:02:28.527Z,10.50
2019-03-30T15:05:00.953Z,26.87
2019-03-30T15:07:30.312Z,18.53
2019-03-30T15:10:01.527Z,12.70
2019-03-30T15:12:31.848Z,18.43
2019-03-30T15:15:01.803Z,14.43
2019-03-30T15:17:31.762Z,18.07
2019-03-30T15:20:01.638Z,10.20
2019-03-30T15:22:31.602Z,29.03
2019-03-30T15:25:01.568Z,17.13
2019-03-30T15:27:31.469Z,12.80
2019-03-30T15:30:02.800Z,34.77
2019-03-30T15:32:33.091Z,15.93
2019-03-30T15:35:04.149Z,13.03
2019-03-30T15:37:34.191Z,18.13
2019-03-30T15:40:04.234Z,14.40
2019-03-30T15:42:34.463Z,15.50
2019-03-30T15:45:05.437Z,15.60
2019-03-30T15:47:35.420Z,16.70
2019-03-30T15:50:05.545Z,14.00
2019-03-30T15:52:35.463Z,20.00
2019-03-30T15:55:05.623Z,13.47
2019-03-30T15:57:35.647Z,12.57
2019-03-30T16:00:07.100Z,12.20
2019-03-30T16:02:37.538Z,22.10
2019-03-30T16:05:10.871Z,15.20
2019-03-30T16:07:41.287Z,11.97
2019-03-30T16:10:12.998Z,17.80
2019-03-30T16:12:43.095Z,19.43
2019-03-30T16:15:13.667Z,13.93
2019-03-30T16:17:44.540Z,17.50
2019-03-30T16:20:15.537Z,14.53
2019-03-30T16:22:45.808Z,13.57
2019-03-30T16:25:17.440Z,16.77
2019-03-30T16:27:47.524Z,15.60
2019-03-30T16:30:17.842Z,15.03
2019-03-30T16:32:47.852Z,15.43
2019-03-30T16:35:18.100Z,22.40
2019-03-30T16:37:48.321Z,14.80
2019-03-30T16:40:18.441Z,16.77
2019-03-30T16:42:48.486Z,16.63
2019-03-30T16:45:18.576Z,16.73
2019-03-30T16:47:50.767Z,16.03
2019-03-30T16:50:25.288Z,15.90
2019-03-30T16:52:57.497Z,20.37
2019-03-30T16:55:34.639Z,16.77
2019-03-30T16:58:07.747Z,23.33
2019-03-30T17:00:55.337Z,19.20
2019-03-30T17:03:14.803Z,15.43
2019-03-30T17:05:59.113Z,14.90
2019-03-30T17:08:40.251Z,17.90
2019-03-30T17:18:42.171Z,23.53
2019-03-30T17:21:22.831Z,19.07
2019-03-30T17:23:55.211Z,28.17
2019-03-30T17:26:30.358Z,20.20
2019-03-30T17:29:04.078Z,28.73
2019-03-30T17:31:57.070Z,22.53
2019-03-30T17:34:29.653Z,25.33
2019-03-30T17:37:00.049Z,25.17
2019-03-30T17:39:30.324Z,19.20
2019-03-30T17:42:01.439Z,19.57
2019-03-30T17:44:32.403Z,23.00
2019-03-30T17:47:03.739Z,21.03
2019-03-30T17:49:36.112Z,22.50
2019-03-30T17:52:06.415Z,26.73
2019-03-30T17:54:39.704Z,21.03
2019-03-30T17:57:08.703Z,45.73
2019-03-30T17:59:40.760Z,20.30
2019-03-30T18:02:11.178Z,40.40
2019-03-30T18:04:41.384Z,22.77
2019-03-30T18:07:13.634Z,21.83
2019-03-30T18:09:43.865Z,28.13
2019-03-30T18:12:14.163Z,25.37
2019-03-30T18:14:44.390Z,37.60
2019-03-30T18:17:14.773Z,23.10
2019-03-30T18:19:45.186Z,24.00
2019-03-30T18:22:17.439Z,22.13
2019-03-30T18:24:47.642Z,21.63
2019-03-30T18:27:17.757Z,28.83
2019-03-30T18:29:48.164Z,25.77
2019-03-30T18:32:18.531Z,24.20
2019-03-30T18:34:48.817Z,25.23
2019-03-30T18:37:18.964Z,24.97
2019-03-30T18:39:49.179Z,27.43
2019-03-30T18:42:19.437Z,24.90
2019-03-30T18:44:49.819Z,27.83
2019-03-30T18:47:19.977Z,24.17
2019-03-30T18:49:52.143Z,30.37
2019-03-30T18:52:22.422Z,21.70
2019-03-30T18:54:52.505Z,38.03
2019-03-30T18:57:22.751Z,23.33
2019-03-30T18:59:53.844Z,29.10
2019-03-30T19:02:24.034Z,23.93
2019-03-30T19:04:54.446Z,30.40
2019-03-30T19:07:24.842Z,23.80
2019-03-30T19:09:55.061Z,25.17
2019-03-30T19:12:25.370Z,39.73
2019-03-30T19:14:55.537Z,32.70
2019-03-30T19:17:25.722Z,23.47
2019-03-30T19:19:55.925Z,33.07
2019-03-30T19:22:26.237Z,25.63
2019-03-30T19:24:56.484Z,31.23
2019-03-30T19:27:26.723Z,36.43
2019-03-30T19:29:56.925Z,35.10
2019-03-30T19:32:27.061Z,30.10
2019-03-30T19:34:57.285Z,33.40
2019-03-30T19:37:27.543Z,31.40
2019-03-30T19:39:57.983Z,31.83
2019-03-30T19:42:28.157Z,31.90
2019-03-30T19:44:59.541Z,34.17
2019-03-30T19:47:29.898Z,27.37
2019-03-30T19:50:00.376Z,27.27
2019-03-30T19:52:39.731Z,29.37
2019-03-30T19:55:02.517Z,37.30
2019-03-30T19:57:32.721Z,44.87
2019-03-30T20:00:03.039Z,35.90
2019-03-30T20:02:33.677Z,33.93
2019-03-30T20:05:04.063Z,28.87
2019-03-30T20:07:34.265Z,48.33
2019-03-30T20:10:04.752Z,27.30
2019-03-30T20:12:35.383Z,32.93
2019-03-30T20:15:06.102Z,49.17
2019-03-30T20:17:36.435Z,37.50
2019-03-30T20:20:07.242Z,30.77
2019-03-30T20:22:37.437Z,29.00
2019-03-30T20:25:08.483Z,32.93
2019-03-30T20:27:38.678Z,43.97
2019-03-30T20:30:11.223Z,42.07
2019-03-30T20:32:43.158Z,52.40
2019-03-30T20:35:14.534Z,37.93
2019-03-30T20:37:45.735Z,37.77
2019-03-30T20:40:15.999Z,39.03
2019-03-30T20:42:46.182Z,44.00
2019-03-30T20:45:17.443Z,45.90
2019-03-30T20:47:48.149Z,57.87
2019-03-30T20:50:18.440Z,77.30
2019-03-30T20:52:48.594Z,65.63
2019-03-30T20:55:18.948Z,65.83
2019-03-30T20:57:49.198Z,67.77
2019-03-30T21:00:20.301Z,70.57
2019-03-30T21:02:50.462Z,66.40
2019-03-30T21:05:20.723Z,75.33
2019-03-30T21:07:50.939Z,55.87
2019-03-30T21:10:23.643Z,61.47
2019-03-30T21:12:53.877Z,64.03
2019-03-30T21:15:24.011Z,81.17
2019-03-30T21:17:55.104Z,67.67
2019-03-30T21:20:25.262Z,80.30
2019-03-30T21:22:55.862Z,76.67
2019-03-30T21:25:26.038Z,72.97
2019-03-30T21:27:56.135Z,72.00
2019-03-30T21:30:26.345Z,89.63
2019-03-30T21:32:56.343Z,69.17
2019-03-30T21:35:27.366Z,83.00
2019-03-30T21:37:58.693Z,80.63
2019-03-30T21:40:28.982Z,108.10
2019-03-30T21:42:59.537Z,99.30
2019-03-30T21:45:30.638Z,103.40
2019-03-30T21:48:00.937Z,80.33
2019-03-30T21:50:31.808Z,90.13
2019-03-30T21:53:01.689Z,86.77
2019-03-30T21:55:32.027Z,92.20
2019-03-30T21:58:01.952Z,101.23
2019-03-30T22:00:36.738Z,100.97
2019-03-30T22:03:08.104Z,107.83
2019-03-30T22:05:39.069Z,91.97
2019-03-30T22:08:09.221Z,100.73
2019-03-30T22:10:40.032Z,113.87
2019-03-30T22:13:10.074Z,110.67
2019-03-30T22:15:39.973Z,105.73
2019-03-30T22:18:10.752Z,129.47
2019-03-30T22:20:40.623Z,100.10
2019-03-30T22:23:10.663Z,117.10
2019-03-30T22:25:40.692Z,110.03
2019-03-30T22:28:10.547Z,118.77
2019-03-30T22:30:40.873Z,88.07
2019-03-30T22:33:10.729Z,110.97
2019-03-30T22:35:40.715Z,102.20
2019-03-30T22:38:10.591Z,97.97
2019-03-30T22:40:44.038Z,121.13
2019-03-30T22:43:13.997Z,99.33
2019-03-30T22:45:46.987Z,90.03
2019-03-30T22:48:16.846Z,109.67
2019-03-30T22:50:46.632Z,111.77
2019-03-30T22:53:16.670Z,119.80
2019-03-30T22:55:46.718Z,117.93
2019-03-30T22:58:16.837Z,115.80
2019-03-30T23:01:07.145Z,123.60
2019-03-30T23:03:37.249Z,143.33
2019-03-30T23:06:07.088Z,141.67
2019-03-30T23:08:36.969Z,105.90
2019-03-30T23:11:07.007Z,115.07
2019-03-30T23:13:36.897Z,103.63
2019-03-30T23:16:07.677Z,100.43
2019-03-30T23:18:37.557Z,141.27
2019-03-30T23:21:08.717Z,111.23
2019-03-30T23:23:38.701Z,129.43
2019-03-30T23:26:08.650Z,110.00
2019-03-30T23:28:38.642Z,131.27
2019-03-30T23:31:10.419Z,119.87
2019-03-30T23:33:40.337Z,130.67
2019-03-30T23:36:10.188Z,121.93
2019-03-30T23:38:40.004Z,110.80
2019-03-30T23:41:09.972Z,125.90
2019-03-30T23:43:40.382Z,134.90
2019-03-30T23:46:10.238Z,159.13
2019-03-30T23:48:40.138Z,122.03
2019-03-30T23:51:10.965Z,121.70
2019-03-30T23:53:40.868Z,158.57
2019-03-30T23:56:24.157Z,127.20
2019-03-30T23:58:54.272Z,131.77
